パゴパゴ の空港の天気 - METARとTAF

パゴパゴ国際空港 ( NSTU / PPG ) - アメリカ領サモア パゴパゴ
飛行場実況気象(Metar)
観測時間09/22 11:50 SST (09/22 22:50 UTC)
風向・風速東南東 5m/s
視程10km以上
天気現象
少しの雲 雲底高度 580m
全天の4割程度の雲 雲底高度 1220m
全天の4割程度の雲 雲底高度 3050m
気温30.1℃
湿度83%
気圧1014.2hPa
METARNSTU 222250Z 12010KT 12SM FEW019 SCT040 SCT100 30/27 A2995 RMK SLP142 T03010269
過去の天気等 Google飛行場航空写真 Wunderground天気予報

過去48時間のMETAR

飛行場予報(TAF)
発表時間: 9/22 06:36 SST (9/22 17:36 UTC)
予報対象時間: 22日7時 SST ~ 23日7時 SST
風向・風速東南東 6m/s
視程10km以上
天気現象周辺でしゅう雨
全天の4割程度の雲 雲底高度 610m
全天の4割程度の雲 雲底高度 1220m
全天の4割程度の雲 雲底高度 3050m
NSTU 221736Z 2218/2318 11011KT P6SM VCSH SCT020 SCT040 SCT100